Time;durP1;ratioP1;P1;durP2;ratioP2;P2;SDS_P1;SDS_P2;PMS_P1;PMS_P2;Temp;Humidity;BMP_temperature;BMP_pressure;BME280_temperature;BME280_humidity;BME280_pressure;Samples;Min_cycle;Max_cycle;Signal;HPM_P1;HPM_P2
2021/06/27 00:00:25;;;;;;;47.30;36.70;;;;;;;;;;1426089;41;20517;-80
2021/06/27 00:01:27;;;;;;;47.15;35.10;;;;;;;;;;1434022;41;20490;-80
2021/06/27 00:02:28;;;;;;;51.25;36.58;;;;;;;;;;1435466;41;20419;-79
2021/06/27 00:03:30;;;;;;;49.33;35.70;;;;;;;;;;1433033;41;20893;-81
2021/06/27 00:04:32;;;;;;;51.40;37.13;;;;;;;;;;1437518;41;20808;-79
2021/06/27 00:05:36;;;;;;;46.97;36.55;;;;;;;;;;1438169;41;20540;-81
2021/06/27 00:06:44;;;;;;;50.67;36.33;;;;;;;;;;1440697;41;20695;-80
2021/06/27 00:07:51;;;;;;;49.40;35.65;;;;;;;;;;1440252;41;20411;-79
2021/06/27 00:08:53;;;;;;;50.03;36.50;;;;;;;;;;1442209;41;20747;-80
2021/06/27 00:09:54;;;;;;;48.13;35.42;;;;;;;;;;1434087;41;20982;-82
2021/06/27 00:10:58;;;;;;;51.50;37.38;;;;;;;;;;1434092;41;20683;-82
2021/06/27 00:12:01;;;;;;;46.78;36.17;;;;;;;;;;1438475;41;20819;-80
2021/06/27 00:13:03;;;;;;;51.03;37.05;;;;;;;;;;1437846;41;20438;-80
2021/06/27 00:14:06;;;;;;;49.47;35.65;;;;;;;;;;1438935;41;20457;-81
2021/06/27 00:15:15;;;;;;;50.42;37.35;;;;;;;;;;1442137;41;20796;-81
2021/06/27 00:16:19;;;;;;;50.70;38.15;;;;;;;;;;1437913;41;20466;-80
2021/06/27 00:17:21;;;;;;;49.28;36.78;;;;;;;;;;1437711;41;20423;-80
2021/06/27 00:18:24;;;;;;;49.53;37.78;;;;;;;;;;1434053;41;20468;-81
2021/06/27 00:19:26;;;;;;;52.70;36.75;;;;;;;;;;1434435;41;20562;-81
2021/06/27 00:20:30;;;;;;;52.20;37.75;;;;;;;;;;1434340;41;20554;-79
2021/06/27 00:21:32;;;;;;;51.22;38.50;;;;;;;;;;1434846;41;20831;-80
2021/06/27 00:22:34;;;;;;;49.72;38.00;;;;;;;;;;1434889;41;20449;-80
2021/06/27 00:23:39;;;;;;;49.95;38.15;;;;;;;;;;1433315;41;20461;-79
2021/06/27 00:24:40;;;;;;;51.28;37.33;;;;;;;;;;1437891;41;21134;-81
2021/06/27 00:25:43;;;;;;;53.08;38.55;;;;;;;;;;1436862;41;20913;-80
2021/06/27 00:26:46;;;;;;;47.83;36.35;;;;;;;;;;1439973;41;20456;-79
2021/06/27 00:27:49;;;;;;;54.55;40.17;;;;;;;;;;1439642;41;20436;-80
2021/06/27 00:28:51;;;;;;;50.60;38.42;;;;;;;;;;1442418;41;20442;-80
2021/06/27 00:29:53;;;;;;;52.35;38.47;;;;;;;;;;1441962;41;20434;-80
2021/06/27 00:30:55;;;;;;;54.33;38.17;;;;;;;;;;1442293;41;20517;-80
2021/06/27 00:31:57;;;;;;;49.40;37.03;;;;;;;;;;1442362;41;20426;-80
2021/06/27 00:32:59;;;;;;;49.53;37.15;;;;;;;;;;1439321;41;20497;-82
2021/06/27 00:34:00;;;;;;;49.85;37.13;;;;;;;;;;1439006;41;20427;-81
2021/06/27 00:35:05;;;;;;;49.05;37.85;;;;;;;;;;1441986;41;20818;-79
2021/06/27 00:36:07;;;;;;;52.00;39.13;;;;;;;;;;1441619;41;20433;-80
2021/06/27 00:37:09;;;;;;;51.15;38.25;;;;;;;;;;1434218;41;20464;-82
2021/06/27 00:38:11;;;;;;;49.05;36.65;;;;;;;;;;1434510;41;20823;-81
2021/06/27 00:39:13;;;;;;;51.65;37.95;;;;;;;;;;1430604;41;20798;-82
2021/06/27 00:40:19;;;;;;;52.78;38.95;;;;;;;;;;1434166;41;20530;-80
2021/06/27 00:41:20;;;;;;;52.90;39.47;;;;;;;;;;1434006;41;20828;-80
2021/06/27 00:42:22;;;;;;;55.10;39.72;;;;;;;;;;1431033;41;20548;-83
2021/06/27 00:43:23;;;;;;;51.90;39.67;;;;;;;;;;1426864;41;20537;-81
2021/06/27 00:44:25;;;;;;;53.03;38.92;;;;;;;;;;1428943;41;20466;-82
2021/06/27 00:45:29;;;;;;;58.00;39.63;;;;;;;;;;1430759;41;20702;-81
2021/06/27 00:46:30;;;;;;;55.13;40.33;;;;;;;;;;1424499;41;20482;-82
2021/06/27 00:47:34;;;;;;;52.58;37.75;;;;;;;;;;1430339;41;20418;-82
2021/06/27 00:48:36;;;;;;;53.45;39.70;;;;;;;;;;1437035;41;20469;-81
2021/06/27 00:49:38;;;;;;;52.20;38.33;;;;;;;;;;1437218;41;21167;-81
2021/06/27 00:50:49;;;;;;;50.17;37.97;;;;;;;;;;1437630;41;20423;-80
2021/06/27 00:51:51;;;;;;;55.03;39.77;;;;;;;;;;1438161;41;20488;-81
2021/06/27 00:52:53;;;;;;;55.58;40.80;;;;;;;;;;1437284;41;20412;-80
2021/06/27 00:53:55;;;;;;;52.08;37.67;;;;;;;;;;1433876;41;20554;-80
2021/06/27 00:54:57;;;;;;;50.65;38.20;;;;;;;;;;1436105;41;20510;-81
2021/06/27 00:55:58;;;;;;;50.15;38.53;;;;;;;;;;1436333;41;20458;-81
2021/06/27 00:57:00;;;;;;;52.28;38.17;;;;;;;;;;1439918;41;20538;-80
2021/06/27 00:58:03;;;;;;;53.25;39.70;;;;;;;;;;1443882;41;20423;-82
2021/06/27 00:59:04;;;;;;;53.72;39.40;;;;;;;;;;1443653;41;20580;-80
2021/06/27 01:00:07;;;;;;;53.83;39.97;;;;;;;;;;1441900;41;20484;-80
2021/06/27 01:01:09;;;;;;;53.00;39.15;;;;;;;;;;1439830;41;20415;-83
2021/06/27 01:02:11;;;;;;;48.25;38.05;;;;;;;;;;1440251;41;20410;-82
2021/06/27 01:03:13;;;;;;;55.00;39.67;;;;;;;;;;1440593;41;20536;-82
2021/06/27 01:04:14;;;;;;;52.63;39.55;;;;;;;;;;1435084;41;20459;-83
2021/06/27 01:05:19;;;;;;;53.78;38.92;;;;;;;;;;1426860;41;20451;-82
2021/06/27 01:06:21;;;;;;;51.97;39.35;;;;;;;;;;1430973;41;20431;-81
2021/06/27 01:07:22;;;;;;;50.25;39.13;;;;;;;;;;1434684;41;20421;-81
2021/06/27 01:08:24;;;;;;;55.00;38.67;;;;;;;;;;1434369;41;20408;-82
2021/06/27 01:09:26;;;;;;;53.17;39.20;;;;;;;;;;1434511;41;21009;-82
2021/06/27 01:10:28;;;;;;;49.45;38.55;;;;;;;;;;1433946;41;20513;-81
2021/06/27 01:11:31;;;;;;;48.97;37.80;;;;;;;;;;1438106;41;20415;-81
2021/06/27 01:12:34;;;;;;;53.50;39.25;;;;;;;;;;1438363;41;20419;-82
2021/06/27 01:13:35;;;;;;;55.10;39.33;;;;;;;;;;1438809;41;20412;-81
2021/06/27 01:14:37;;;;;;;51.58;39.67;;;;;;;;;;1438677;41;20439;-83
2021/06/27 01:15:38;;;;;;;52.17;38.35;;;;;;;;;;1434122;41;20814;-83
2021/06/27 01:16:43;;;;;;;51.58;38.72;;;;;;;;;;1430461;41;20798;-81
2021/06/27 01:17:49;;;;;;;54.35;39.60;;;;;;;;;;1427219;41;20425;-81
2021/06/27 01:18:53;;;;;;;52.47;38.95;;;;;;;;;;1434890;41;20663;-80
2021/06/27 01:19:54;;;;;;;53.90;40.27;;;;;;;;;;1439294;41;20449;-81
2021/06/27 01:20:56;;;;;;;53.60;39.22;;;;;;;;;;1434242;41;20771;-81
2021/06/27 01:21:59;;;;;;;53.33;39.20;;;;;;;;;;1434653;41;20476;-80
2021/06/27 01:23:04;;;;;;;54.05;40.28;;;;;;;;;;1434071;41;20425;-80
2021/06/27 01:24:06;;;;;;;52.67;39.33;;;;;;;;;;1434717;41;20440;-83
2021/06/27 01:25:10;;;;;;;51.63;39.22;;;;;;;;;;1438893;41;20449;-81
2021/06/27 01:26:11;;;;;;;55.72;40.65;;;;;;;;;;1434626;41;20485;-82
2021/06/27 01:27:13;;;;;;;54.70;39.55;;;;;;;;;;1429815;41;20420;-82
2021/06/27 01:28:16;;;;;;;50.83;38.17;;;;;;;;;;1427836;41;20459;-83
2021/06/27 01:29:18;;;;;;;53.50;40.08;;;;;;;;;;1430348;41;20514;-82
2021/06/27 01:30:21;;;;;;;52.38;40.17;;;;;;;;;;1430874;41;20435;-81
2021/06/27 01:31:25;;;;;;;53.85;39.53;;;;;;;;;;1430458;41;20426;-81
2021/06/27 01:32:27;;;;;;;49.30;38.30;;;;;;;;;;1431651;41;20435;-81
2021/06/27 01:33:28;;;;;;;51.50;39.05;;;;;;;;;;1435473;41;20504;-83
2021/06/27 01:34:30;;;;;;;51.35;39.30;;;;;;;;;;1427488;41;20436;-82
2021/06/27 01:35:32;;;;;;;50.35;38.45;;;;;;;;;;1426389;41;20467;-83
2021/06/27 01:36:33;;;;;;;53.60;39.42;;;;;;;;;;1434672;41;20903;-81
2021/06/27 01:37:35;;;;;;;51.05;39.53;;;;;;;;;;1432777;41;20525;-82
2021/06/27 01:38:37;;;;;;;49.20;38.80;;;;;;;;;;1430767;41;20557;-81
2021/06/27 01:39:39;;;;;;;52.33;39.58;;;;;;;;;;1430459;41;20536;-81
2021/06/27 01:40:41;;;;;;;55.88;40.75;;;;;;;;;;1430312;41;20478;-81
2021/06/27 01:41:50;;;;;;;47.83;38.28;;;;;;;;;;1430308;41;20503;-83
2021/06/27 01:42:53;;;;;;;52.20;39.92;;;;;;;;;;1431168;41;20422;-83
2021/06/27 01:43:55;;;;;;;55.03;40.10;;;;;;;;;;1433242;41;20444;-82
2021/06/27 01:44:56;;;;;;;50.92;39.55;;;;;;;;;;1425980;41;20440;-82
2021/06/27 01:45:59;;;;;;;50.78;38.85;;;;;;;;;;1426199;41;20512;-80
2021/06/27 01:47:02;;;;;;;52.47;40.05;;;;;;;;;;1434269;41;20780;-81
2021/06/27 01:48:06;;;;;;;51.35;39.95;;;;;;;;;;1438374;41;20415;-83
2021/06/27 01:49:09;;;;;;;54.88;40.42;;;;;;;;;;1433933;41;20460;-81
2021/06/27 01:50:12;;;;;;;51.83;38.47;;;;;;;;;;1434327;41;20557;-82
2021/06/27 01:51:14;;;;;;;52.03;39.28;;;;;;;;;;1434602;41;20440;-82
2021/06/27 01:52:15;;;;;;;49.88;38.50;;;;;;;;;;1434628;41;20425;-84
2021/06/27 01:53:20;;;;;;;52.40;39.88;;;;;;;;;;1440078;41;20648;-81
2021/06/27 01:54:22;;;;;;;52.97;38.87;;;;;;;;;;1440852;41;20817;-82
2021/06/27 01:55:24;;;;;;;55.00;40.90;;;;;;;;;;1432371;41;20426;-81
2021/06/27 01:56:26;;;;;;;55.60;40.75;;;;;;;;;;1432357;41;20524;-81
2021/06/27 01:57:28;;;;;;;53.97;39.03;;;;;;;;;;1438189;41;20710;-83
2021/06/27 01:58:37;;;;;;;50.35;39.00;;;;;;;;;;1438881;41;20455;-82
2021/06/27 01:59:39;;;;;;;51.15;38.63;;;;;;;;;;1437989;41;20476;-81
2021/06/27 02:00:41;;;;;;;53.38;39.28;;;;;;;;;;1438047;41;20544;-82
2021/06/27 02:01:42;;;;;;;49.03;38.53;;;;;;;;;;1433884;41;20467;-82
2021/06/27 02:02:44;;;;;;;53.72;39.53;;;;;;;;;;1434108;41;20419;-82
2021/06/27 02:03:49;;;;;;;51.65;39.45;;;;;;;;;;1433980;41;20464;-81
2021/06/27 02:04:50;;;;;;;52.45;39.40;;;;;;;;;;1436864;41;20459;-81
2021/06/27 02:05:52;;;;;;;52.78;39.55;;;;;;;;;;1438486;41;20412;-81
2021/06/27 02:06:54;;;;;;;51.20;38.72;;;;;;;;;;1440347;41;20445;-81
2021/06/27 02:07:58;;;;;;;53.20;38.53;;;;;;;;;;1442470;41;20555;-81
2021/06/27 02:09:00;;;;;;;49.60;38.53;;;;;;;;;;1435719;41;20865;-82
2021/06/27 02:10:06;;;;;;;52.72;38.92;;;;;;;;;;1437938;41;20877;-81
2021/06/27 02:11:09;;;;;;;52.72;40.65;;;;;;;;;;1442006;41;20468;-81
2021/06/27 02:12:11;;;;;;;55.85;39.63;;;;;;;;;;1438360;41;20512;-82
2021/06/27 02:13:13;;;;;;;50.80;39.22;;;;;;;;;;1438242;41;20463;-81
2021/06/27 02:14:15;;;;;;;48.85;38.13;;;;;;;;;;1438055;41;20423;-82
2021/06/27 02:15:18;;;;;;;51.15;40.00;;;;;;;;;;1437654;41;20508;-82
2021/06/27 02:16:20;;;;;;;51.47;39.95;;;;;;;;;;1434107;41;20575;-81
2021/06/27 02:17:21;;;;;;;51.45;38.75;;;;;;;;;;1438277;41;20430;-81
2021/06/27 02:18:31;;;;;;;54.45;40.20;;;;;;;;;;1438493;41;20503;-82
2021/06/27 02:19:33;;;;;;;50.60;39.60;;;;;;;;;;1434076;41;20469;-81
2021/06/27 02:20:34;;;;;;;48.40;38.85;;;;;;;;;;1434392;41;20431;-81
2021/06/27 02:21:37;;;;;;;53.13;38.67;;;;;;;;;;1438248;41;20903;-80
2021/06/27 02:22:39;;;;;;;50.92;39.33;;;;;;;;;;1438230;41;20427;-81
2021/06/27 02:23:42;;;;;;;51.00;39.13;;;;;;;;;;1438310;41;20435;-81
2021/06/27 02:24:43;;;;;;;51.15;39.72;;;;;;;;;;1433960;41;20523;-81
2021/06/27 02:25:45;;;;;;;53.33;41.03;;;;;;;;;;1430042;41;20792;-80
2021/06/27 02:26:47;;;;;;;49.20;38.35;;;;;;;;;;1429808;41;20462;-80
2021/06/27 02:27:49;;;;;;;50.95;39.60;;;;;;;;;;1429686;41;20486;-79
2021/06/27 02:28:51;;;;;;;53.28;40.33;;;;;;;;;;1433995;41;20469;-81
2021/06/27 02:29:52;;;;;;;52.70;39.33;;;;;;;;;;1438393;41;20478;-81
2021/06/27 02:30:54;;;;;;;50.03;40.25;;;;;;;;;;1434264;41;20457;-82
2021/06/27 02:31:59;;;;;;;51.08;39.80;;;;;;;;;;1434021;41;20819;-82
2021/06/27 02:33:01;;;;;;;51.90;39.40;;;;;;;;;;1433811;41;20934;-82
2021/06/27 02:34:02;;;;;;;51.88;40.35;;;;;;;;;;1426215;41;20431;-82
2021/06/27 02:35:05;;;;;;;48.83;38.58;;;;;;;;;;1422602;41;20841;-81
2021/06/27 02:36:08;;;;;;;50.28;39.72;;;;;;;;;;1430438;41;20544;-82
2021/06/27 02:37:10;;;;;;;50.78;39.95;;;;;;;;;;1434856;41;20504;-81
2021/06/27 02:38:11;;;;;;;48.30;38.92;;;;;;;;;;1434365;41;20911;-80
2021/06/27 02:39:13;;;;;;;52.88;40.30;;;;;;;;;;1435455;41;20428;-82
2021/06/27 02:40:15;;;;;;;50.28;38.97;;;;;;;;;;1434322;41;20831;-81
2021/06/27 02:41:18;;;;;;;53.40;40.85;;;;;;;;;;1430409;41;20484;-82
2021/06/27 02:42:20;;;;;;;52.47;39.85;;;;;;;;;;1433722;41;20839;-80
2021/06/27 02:43:22;;;;;;;49.65;39.83;;;;;;;;;;1437862;41;20447;-83
2021/06/27 02:44:24;;;;;;;52.05;40.38;;;;;;;;;;1436289;41;20459;-82
2021/06/27 02:45:25;;;;;;;54.53;40.30;;;;;;;;;;1434367;41;20421;-82
2021/06/27 02:46:27;;;;;;;51.90;38.90;;;;;;;;;;1429866;41;20447;-82
2021/06/27 02:47:28;;;;;;;48.10;39.33;;;;;;;;;;1432155;41;20477;-81
2021/06/27 02:48:30;;;;;;;54.08;39.97;;;;;;;;;;1438385;41;20552;-84
2021/06/27 02:49:32;;;;;;;52.10;40.88;;;;;;;;;;1433924;41;20461;-82
2021/06/27 02:50:36;;;;;;;51.95;40.70;;;;;;;;;;1430698;41;20483;-82
2021/06/27 02:51:38;;;;;;;52.88;40.08;;;;;;;;;;1434253;41;20433;-81
2021/06/27 02:52:41;;;;;;;51.17;40.00;;;;;;;;;;1438786;41;20434;-82
2021/06/27 02:53:42;;;;;;;51.38;39.50;;;;;;;;;;1439661;41;20420;-81
2021/06/27 02:54:44;;;;;;;53.78;39.55;;;;;;;;;;1432308;41;20490;-82
2021/06/27 02:55:46;;;;;;;50.92;40.35;;;;;;;;;;1432415;41;20524;-81
2021/06/27 02:56:47;;;;;;;55.58;40.45;;;;;;;;;;1437617;41;20453;-81
2021/06/27 02:57:51;;;;;;;49.60;39.53;;;;;;;;;;1434361;41;20431;-81
2021/06/27 02:58:53;;;;;;;51.10;39.90;;;;;;;;;;1439019;41;20481;-81
2021/06/27 02:59:55;;;;;;;52.42;40.30;;;;;;;;;;1443629;41;20504;-79
2021/06/27 03:00:56;;;;;;;53.70;40.08;;;;;;;;;;1439610;41;20490;-80
2021/06/27 03:01:58;;;;;;;51.42;39.47;;;;;;;;;;1435107;41;20496;-80
2021/06/27 03:03:00;;;;;;;48.55;39.00;;;;;;;;;;1434387;41;20443;-81
2021/06/27 03:04:02;;;;;;;53.60;40.80;;;;;;;;;;1438443;41;20413;-82
2021/06/27 03:05:04;;;;;;;50.25;39.58;;;;;;;;;;1438116;41;20468;-83
2021/06/27 03:06:07;;;;;;;52.85;39.25;;;;;;;;;;1432134;41;20866;-81
2021/06/27 03:07:09;;;;;;;53.63;40.33;;;;;;;;;;1434874;41;20919;-80
2021/06/27 03:08:10;;;;;;;52.53;40.25;;;;;;;;;;1434756;41;20500;-80
2021/06/27 03:09:12;;;;;;;50.10;39.13;;;;;;;;;;1433463;41;20460;-81
2021/06/27 03:10:17;;;;;;;52.38;38.97;;;;;;;;;;1439112;41;20700;-81
2021/06/27 03:11:18;;;;;;;49.17;38.55;;;;;;;;;;1438947;41;20428;-82
2021/06/27 03:12:20;;;;;;;51.33;39.10;;;;;;;;;;1438919;41;20422;-82
2021/06/27 03:13:22;;;;;;;53.20;39.47;;;;;;;;;;1434529;41;20775;-81
2021/06/27 03:14:23;;;;;;;50.47;40.42;;;;;;;;;;1430834;41;20515;-79
2021/06/27 03:15:25;;;;;;;56.78;40.33;;;;;;;;;;1427098;41;20427;-82
2021/06/27 03:16:26;;;;;;;51.75;40.00;;;;;;;;;;1426649;41;20480;-82
2021/06/27 03:17:28;;;;;;;53.10;40.25;;;;;;;;;;1434821;41;20431;-82
2021/06/27 03:18:29;;;;;;;53.38;39.90;;;;;;;;;;1433831;41;20453;-82
2021/06/27 03:19:31;;;;;;;52.42;39.58;;;;;;;;;;1430039;41;20844;-81
2021/06/27 03:20:33;;;;;;;54.58;40.70;;;;;;;;;;1434344;41;20474;-80
2021/06/27 03:21:35;;;;;;;52.63;40.80;;;;;;;;;;1438231;41;20439;-82
2021/06/27 03:22:37;;;;;;;52.13;39.70;;;;;;;;;;1433850;41;20481;-82
2021/06/27 03:23:39;;;;;;;52.53;40.97;;;;;;;;;;1434478;41;20468;-82
2021/06/27 03:24:40;;;;;;;51.28;39.63;;;;;;;;;;1438151;41;20575;-81
2021/06/27 03:25:42;;;;;;;53.10;40.35;;;;;;;;;;1433839;41;20470;-82
2021/06/27 03:26:44;;;;;;;52.33;39.42;;;;;;;;;;1433810;41;20455;-81
2021/06/27 03:27:46;;;;;;;54.58;40.92;;;;;;;;;;1434331;41;20949;-81
2021/06/27 03:28:51;;;;;;;51.67;39.80;;;;;;;;;;1439989;41;20497;-82
2021/06/27 03:29:53;;;;;;;52.45;39.35;;;;;;;;;;1439214;41;20420;-81
2021/06/27 03:30:54;;;;;;;53.58;39.97;;;;;;;;;;1439511;41;20443;-80
2021/06/27 03:31:56;;;;;;;54.00;40.13;;;;;;;;;;1440588;41;20548;-81
2021/06/27 03:32:58;;;;;;;53.85;40.38;;;;;;;;;;1436116;41;20441;-81
2021/06/27 03:34:00;;;;;;;54.85;41.33;;;;;;;;;;1439425;41;20435;-80
2021/06/27 03:35:03;;;;;;;55.70;40.47;;;;;;;;;;1435538;41;20441;-81
2021/06/27 03:36:05;;;;;;;53.35;39.70;;;;;;;;;;1439217;41;20452;-80
2021/06/27 03:37:07;;;;;;;51.08;39.55;;;;;;;;;;1443719;41;20496;-80
2021/06/27 03:39:16;;;;;;;52.53;41.40;;;;;;;;;;1439054;41;20456;-81
2021/06/27 03:40:18;;;;;;;53.95;40.88;;;;;;;;;;1435913;41;20441;-81
2021/06/27 03:41:22;;;;;;;48.67;40.15;;;;;;;;;;1435178;41;20428;-82
2021/06/27 03:42:24;;;;;;;55.08;41.35;;;;;;;;;;1427737;41;20494;-82
2021/06/27 03:43:25;;;;;;;53.95;40.42;;;;;;;;;;1427486;41;20481;-82
2021/06/27 03:44:28;;;;;;;54.08;41.35;;;;;;;;;;1428146;41;20474;-82
2021/06/27 03:45:30;;;;;;;58.40;42.55;;;;;;;;;;1429559;41;20435;-82
2021/06/27 03:46:31;;;;;;;54.80;40.88;;;;;;;;;;1429824;41;20484;-81
2021/06/27 03:47:33;;;;;;;57.10;42.08;;;;;;;;;;1429930;41;20417;-82
2021/06/27 03:48:34;;;;;;;57.75;41.67;;;;;;;;;;1429890;41;20415;-82
2021/06/27 03:49:36;;;;;;;57.47;40.78;;;;;;;;;;1434419;41;20432;-81
2021/06/27 03:50:38;;;;;;;55.38;41.75;;;;;;;;;;1434104;41;20504;-81
2021/06/27 03:51:40;;;;;;;55.67;41.72;;;;;;;;;;1433542;41;20529;-80
2021/06/27 03:52:42;;;;;;;53.17;41.58;;;;;;;;;;1433983;41;20501;-81
2021/06/27 03:53:43;;;;;;;57.00;40.88;;;;;;;;;;1433949;41;20417;-81
2021/06/27 03:54:45;;;;;;;55.30;41.45;;;;;;;;;;1429724;41;20461;-80
2021/06/27 03:55:47;;;;;;;54.85;41.22;;;;;;;;;;1429634;41;20474;-81
2021/06/27 03:56:48;;;;;;;52.25;40.75;;;;;;;;;;1436533;41;21010;-79
2021/06/27 03:57:50;;;;;;;52.40;41.50;;;;;;;;;;1438038;41;20475;-79
2021/06/27 03:58:51;;;;;;;62.10;43.13;;;;;;;;;;1438420;41;20937;-80
2021/06/27 03:59:53;;;;;;;51.95;40.65;;;;;;;;;;1438965;41;20458;-79
2021/06/27 04:00:55;;;;;;;53.88;41.65;;;;;;;;;;1438566;41;20447;-82
2021/06/27 04:01:57;;;;;;;52.22;40.97;;;;;;;;;;1437967;41;20435;-81
2021/06/27 04:02:58;;;;;;;52.75;42.03;;;;;;;;;;1437517;41;20446;-80
2021/06/27 04:04:02;;;;;;;54.78;41.22;;;;;;;;;;1429497;41;20430;-80
2021/06/27 04:05:04;;;;;;;52.42;40.78;;;;;;;;;;1430113;41;20414;-81
2021/06/27 04:06:06;;;;;;;55.72;41.72;;;;;;;;;;1437341;41;20856;-83
2021/06/27 04:07:08;;;;;;;54.88;41.75;;;;;;;;;;1437257;41;20483;-81
2021/06/27 04:08:09;;;;;;;56.97;42.40;;;;;;;;;;1429500;41;21108;-81
2021/06/27 04:09:11;;;;;;;53.97;41.72;;;;;;;;;;1429772;41;20498;-80
2021/06/27 04:10:13;;;;;;;55.42;42.47;;;;;;;;;;1433544;41;21264;-82
2021/06/27 04:11:14;;;;;;;56.45;41.35;;;;;;;;;;1437543;41;20689;-81
2021/06/27 04:12:16;;;;;;;55.83;43.53;;;;;;;;;;1437224;41;20491;-82
2021/06/27 04:13:17;;;;;;;53.17;42.95;;;;;;;;;;1437592;41;20475;-81
2021/06/27 04:14:19;;;;;;;56.92;42.85;;;;;;;;;;1437589;41;20443;-81
2021/06/27 04:15:21;;;;;;;57.05;42.58;;;;;;;;;;1437226;41;20788;-81
2021/06/27 04:16:22;;;;;;;52.17;41.05;;;;;;;;;;1437274;41;20442;-82
2021/06/27 04:17:25;;;;;;;52.78;41.85;;;;;;;;;;1437391;41;20528;-81
2021/06/27 04:18:27;;;;;;;53.38;42.08;;;;;;;;;;1437486;41;20483;-81
2021/06/27 04:19:28;;;;;;;54.70;42.72;;;;;;;;;;1437639;41;20529;-80
2021/06/27 04:20:30;;;;;;;59.97;43.00;;;;;;;;;;1433435;41;20433;-81
2021/06/27 04:21:32;;;;;;;52.97;40.00;;;;;;;;;;1429802;41;20762;-82
2021/06/27 04:22:34;;;;;;;54.13;42.15;;;;;;;;;;1433625;41;20966;-82
2021/06/27 04:23:38;;;;;;;53.63;42.28;;;;;;;;;;1433466;41;20546;-82
2021/06/27 04:24:40;;;;;;;55.22;42.15;;;;;;;;;;1433709;41;20448;-81
2021/06/27 04:25:43;;;;;;;54.58;43.13;;;;;;;;;;1437908;41;20528;-81
2021/06/27 04:26:44;;;;;;;52.70;41.17;;;;;;;;;;1437677;41;20479;-81
2021/06/27 04:27:46;;;;;;;55.20;42.80;;;;;;;;;;1433594;41;20465;-80
2021/06/27 04:28:48;;;;;;;56.75;43.30;;;;;;;;;;1433372;41;20429;-81
2021/06/27 04:29:49;;;;;;;55.40;41.90;;;;;;;;;;1433553;41;20816;-80
2021/06/27 04:30:51;;;;;;;54.78;42.88;;;;;;;;;;1433660;41;20471;-82
2021/06/27 04:31:53;;;;;;;57.42;43.13;;;;;;;;;;1437434;41;20807;-80
2021/06/27 04:32:55;;;;;;;55.28;43.00;;;;;;;;;;1434631;41;20879;-82
2021/06/27 04:33:56;;;;;;;54.30;43.42;;;;;;;;;;1433071;41;20468;-80
2021/06/27 04:34:58;;;;;;;55.08;42.67;;;;;;;;;;1433222;41;20531;-79
2021/06/27 04:35:59;;;;;;;53.65;42.45;;;;;;;;;;1433802;41;20501;-81
2021/06/27 04:37:01;;;;;;;55.05;42.22;;;;;;;;;;1425671;41;20530;-81
2021/06/27 04:38:03;;;;;;;56.92;41.80;;;;;;;;;;1434200;41;20417;-81
2021/06/27 04:39:08;;;;;;;54.45;42.58;;;;;;;;;;1433463;41;20461;-82
2021/06/27 04:40:10;;;;;;;53.72;42.67;;;;;;;;;;1433651;41;20560;-82
2021/06/27 04:41:12;;;;;;;53.63;41.22;;;;;;;;;;1429153;41;21049;-81
2021/06/27 04:42:13;;;;;;;51.75;40.33;;;;;;;;;;1429843;41;20531;-82
2021/06/27 04:43:15;;;;;;;56.38;42.47;;;;;;;;;;1433006;41;20437;-80
2021/06/27 04:44:17;;;;;;;55.75;41.42;;;;;;;;;;1438402;41;20427;-81
2021/06/27 04:45:18;;;;;;;53.17;41.42;;;;;;;;;;1438189;41;20419;-82
2021/06/27 04:46:20;;;;;;;53.17;40.63;;;;;;;;;;1433914;41;20441;-82
2021/06/27 04:47:21;;;;;;;52.25;41.17;;;;;;;;;;1428710;41;20467;-80
2021/06/27 04:48:23;;;;;;;52.75;42.22;;;;;;;;;;1425976;41;20501;-81
2021/06/27 04:49:25;;;;;;;52.58;43.15;;;;;;;;;;1425489;41;20543;-80
2021/06/27 04:50:26;;;;;;;52.53;41.65;;;;;;;;;;1429720;41;20435;-81
2021/06/27 04:51:28;;;;;;;49.30;40.97;;;;;;;;;;1433386;41;20537;-80
2021/06/27 04:52:32;;;;;;;50.10;41.05;;;;;;;;;;1430133;41;20791;-81
2021/06/27 04:53:34;;;;;;;52.85;41.08;;;;;;;;;;1430219;41;20460;-82
2021/06/27 04:54:36;;;;;;;50.05;39.80;;;;;;;;;;1434234;41;20550;-82
2021/06/27 04:55:39;;;;;;;55.85;42.22;;;;;;;;;;1430220;41;20442;-81
2021/06/27 04:56:40;;;;;;;51.22;41.05;;;;;;;;;;1432866;41;20503;-80
2021/06/27 04:57:42;;;;;;;52.13;40.58;;;;;;;;;;1437898;41;20824;-81
2021/06/27 04:58:43;;;;;;;50.88;40.53;;;;;;;;;;1438099;41;20415;-81
2021/06/27 04:59:45;;;;;;;52.03;40.67;;;;;;;;;;1430092;41;20536;-82
2021/06/27 05:00:46;;;;;;;50.28;40.03;;;;;;;;;;1430542;41;20463;-83
2021/06/27 05:01:48;;;;;;;50.38;42.10;;;;;;;;;;1434000;41;20539;-80
2021/06/27 05:02:50;;;;;;;50.20;40.92;;;;;;;;;;1438570;41;20423;-82
2021/06/27 05:03:51;;;;;;;51.10;40.55;;;;;;;;;;1433770;41;20824;-81
2021/06/27 05:04:53;;;;;;;52.13;40.92;;;;;;;;;;1433816;41;20839;-81
2021/06/27 05:05:55;;;;;;;52.45;41.22;;;;;;;;;;1430054;41;20826;-79
2021/06/27 05:06:56;;;;;;;53.08;41.80;;;;;;;;;;1430011;41;20482;-80
2021/06/27 05:07:58;;;;;;;49.45;40.47;;;;;;;;;;1434425;41;20480;-81
2021/06/27 05:08:59;;;;;;;52.20;42.22;;;;;;;;;;1433338;41;20546;-83
2021/06/27 05:10:04;;;;;;;50.90;40.50;;;;;;;;;;1430301;41;20414;-82
2021/06/27 05:11:05;;;;;;;50.95;41.00;;;;;;;;;;1430455;41;20442;-80
2021/06/27 05:12:08;;;;;;;51.72;41.50;;;;;;;;;;1430044;41;20482;-80
2021/06/27 05:13:09;;;;;;;48.22;40.47;;;;;;;;;;1430368;41;20427;-80
2021/06/27 05:14:11;;;;;;;50.55;41.35;;;;;;;;;;1433897;41;20573;-80
2021/06/27 05:15:13;;;;;;;51.38;41.15;;;;;;;;;;1434062;41;20460;-82
2021/06/27 05:16:15;;;;;;;50.25;41.08;;;;;;;;;;1434109;41;20436;-80
2021/06/27 05:17:17;;;;;;;50.78;40.38;;;;;;;;;;1433981;41;20429;-81
2021/06/27 05:18:19;;;;;;;51.45;42.17;;;;;;;;;;1426312;41;20534;-82
2021/06/27 05:19:21;;;;;;;51.33;40.88;;;;;;;;;;1433967;41;20538;-80
2021/06/27 05:20:23;;;;;;;49.03;39.40;;;;;;;;;;1434386;41;20772;-82
2021/06/27 05:21:24;;;;;;;52.33;41.83;;;;;;;;;;1433923;41;20485;-82
2021/06/27 05:22:28;;;;;;;51.63;41.30;;;;;;;;;;1430273;41;20586;-82
2021/06/27 05:23:30;;;;;;;54.50;41.15;;;;;;;;;;1430324;41;20484;-82
2021/06/27 05:24:32;;;;;;;47.03;40.17;;;;;;;;;;1430126;41;20500;-82
2021/06/27 05:25:33;;;;;;;50.25;41.17;;;;;;;;;;1434443;41;20834;-82
2021/06/27 05:26:35;;;;;;;52.53;41.90;;;;;;;;;;1435106;41;20456;-81
2021/06/27 05:27:37;;;;;;;50.67;39.75;;;;;;;;;;1434874;41;20448;-80
2021/06/27 05:28:39;;;;;;;48.15;39.85;;;;;;;;;;1435711;41;20425;-79
2021/06/27 05:29:40;;;;;;;48.58;39.70;;;;;;;;;;1437559;41;20480;-79
2021/06/27 05:30:42;;;;;;;53.78;40.85;;;;;;;;;;1438184;41;20873;-80
2021/06/27 05:31:44;;;;;;;51.17;40.47;;;;;;;;;;1438764;41;20437;-81
2021/06/27 05:32:46;;;;;;;47.28;38.47;;;;;;;;;;1439321;41;20413;-79
2021/06/27 05:33:47;;;;;;;48.97;41.05;;;;;;;;;;1438960;41;20463;-82
2021/06/27 05:34:50;;;;;;;50.97;40.72;;;;;;;;;;1435018;41;20446;-82
2021/06/27 05:35:52;;;;;;;47.42;39.75;;;;;;;;;;1438130;41;20424;-80
2021/06/27 05:36:53;;;;;;;48.20;40.08;;;;;;;;;;1438388;41;20445;-79
2021/06/27 05:37:55;;;;;;;47.42;39.22;;;;;;;;;;1437058;41;20425;-81
2021/06/27 05:38:57;;;;;;;51.92;40.95;;;;;;;;;;1432238;41;20431;-81
2021/06/27 05:39:59;;;;;;;47.00;38.47;;;;;;;;;;1432025;41;20442;-80
2021/06/27 05:41:00;;;;;;;47.60;39.17;;;;;;;;;;1432040;41;20839;-82
2021/06/27 05:42:02;;;;;;;50.15;41.38;;;;;;;;;;1438997;41;20762;-82
2021/06/27 05:43:04;;;;;;;46.33;39.13;;;;;;;;;;1439827;41;20438;-82
2021/06/27 05:44:07;;;;;;;48.78;39.00;;;;;;;;;;1439496;41;20431;-81
2021/06/27 05:45:09;;;;;;;49.08;39.45;;;;;;;;;;1436210;41;20594;-81
2021/06/27 05:46:10;;;;;;;47.67;39.03;;;;;;;;;;1432429;41;20490;-81
2021/06/27 05:47:12;;;;;;;45.97;38.63;;;;;;;;;;1436183;41;20436;-81
2021/06/27 05:48:14;;;;;;;46.47;38.15;;;;;;;;;;1435434;41;20437;-82
2021/06/27 05:49:16;;;;;;;45.22;39.55;;;;;;;;;;1431917;41;20566;-81
2021/06/27 05:50:17;;;;;;;43.78;37.72;;;;;;;;;;1432525;41;20446;-81
2021/06/27 05:51:19;;;;;;;48.30;39.17;;;;;;;;;;1435501;41;20564;-81
2021/06/27 05:52:21;;;;;;;46.07;38.40;;;;;;;;;;1430229;41;20912;-81
2021/06/27 05:53:22;;;;;;;47.03;37.45;;;;;;;;;;1426585;41;20432;-81
2021/06/27 05:54:24;;;;;;;49.00;39.17;;;;;;;;;;1430122;41;20557;-80
2021/06/27 05:55:26;;;;;;;44.72;37.40;;;;;;;;;;1430879;41;20425;-80
2021/06/27 05:56:27;;;;;;;47.55;39.20;;;;;;;;;;1431526;41;20486;-80
2021/06/27 05:57:29;;;;;;;44.50;38.25;;;;;;;;;;1433572;41;20469;-80
2021/06/27 05:58:30;;;;;;;45.97;38.55;;;;;;;;;;1427786;41;20440;-86
2021/06/27 05:59:34;;;;;;;43.75;37.80;;;;;;;;;;1431785;41;20839;-83
2021/06/27 06:00:35;;;;;;;44.05;37.38;;;;;;;;;;1434796;41;20433;-83
2021/06/27 06:01:38;;;;;;;47.97;38.67;;;;;;;;;;1427068;41;20908;-83
2021/06/27 06:02:41;;;;;;;48.23;39.30;;;;;;;;;;1427300;41;20433;-83